createdAt,value
2022-12-15T00:01:58.795Z,20.13
2022-12-15T00:04:43.999Z,20.70
2022-12-15T00:07:29.131Z,21.85
2022-12-15T00:10:14.322Z,21.05
2022-12-15T00:12:59.308Z,19.60
2022-12-15T00:15:44.611Z,22.02
2022-12-15T00:18:29.507Z,19.70
2022-12-15T00:21:18.617Z,24.98
2022-12-15T00:24:03.803Z,18.48
2022-12-15T00:26:48.945Z,21.33
2022-12-15T00:29:34.227Z,19.98
2022-12-15T00:32:19.357Z,19.88
2022-12-15T00:35:04.083Z,22.85
2022-12-15T00:37:49.273Z,21.20
2022-12-15T00:40:15.850Z,21.33
2022-12-15T00:42:42.389Z,23.30
2022-12-15T00:45:09.307Z,23.38
2022-12-15T00:47:36.349Z,19.20
2022-12-15T00:50:23.885Z,19.15
2022-12-15T00:53:09.026Z,24.02
2022-12-15T00:55:53.962Z,17.20
2022-12-15T00:58:39.047Z,17.90
2022-12-15T01:01:25.939Z,20.58
2022-12-15T01:04:11.177Z,18.52
2022-12-15T01:06:56.377Z,16.92
2022-12-15T01:09:41.949Z,20.77
2022-12-15T01:12:27.171Z,19.42
2022-12-15T01:15:11.990Z,21.02
2022-12-15T01:17:57.192Z,19.02
2022-12-15T01:20:23.737Z,18.77
2022-12-15T01:22:53.054Z,21.88
2022-12-15T01:25:21.921Z,20.70
2022-12-15T01:27:48.928Z,24.10
2022-12-15T01:30:18.084Z,21.45
2022-12-15T01:32:46.403Z,22.30
2022-12-15T01:35:13.156Z,22.05
2022-12-15T01:37:39.672Z,24.40
2022-12-15T01:40:26.226Z,21.88
2022-12-15T01:42:53.182Z,25.08
2022-12-15T01:45:28.669Z,24.38
2022-12-15T01:47:59.240Z,26.73
2022-12-15T01:50:26.770Z,29.13
2022-12-15T01:52:55.080Z,22.65
2022-12-15T01:55:24.468Z,22.92
2022-12-15T01:57:54.632Z,24.95
2022-12-15T02:00:21.197Z,27.60
2022-12-15T02:02:48.095Z,23.95
2022-12-15T02:05:14.781Z,25.02
2022-12-15T02:07:42.699Z,25.67
2022-12-15T02:10:11.155Z,23.27
2022-12-15T02:12:40.612Z,21.92
2022-12-15T02:15:32.160Z,22.85
2022-12-15T02:18:29.701Z,26.35
2022-12-15T02:21:02.703Z,26.08
2022-12-15T02:23:49.044Z,19.45
2022-12-15T02:26:43.211Z,18.15
2022-12-15T02:29:37.775Z,24.85
2022-12-15T02:32:16.494Z,25.58
2022-12-15T02:34:58.417Z,20.77
2022-12-15T02:37:32.946Z,16.05
2022-12-15T02:39:59.796Z,23.25
2022-12-15T02:42:29.897Z,23.02
2022-12-15T02:44:58.730Z,20.88
2022-12-15T02:47:45.961Z,18.27
2022-12-15T02:50:43.488Z,25.63
2022-12-15T02:53:47.655Z,20.83
2022-12-15T02:56:43.411Z,22.42
2022-12-15T02:59:36.650Z,21.58
2022-12-15T03:02:06.478Z,20.73
2022-12-15T03:04:33.886Z,21.73
2022-12-15T03:07:08.170Z,22.52
2022-12-15T03:09:34.680Z,23.75
2022-12-15T03:12:01.558Z,21.65
2022-12-15T03:14:28.170Z,23.33
2022-12-15T03:16:54.902Z,23.23
2022-12-15T03:19:21.520Z,24.90
2022-12-15T03:21:48.018Z,26.90
2022-12-15T03:24:14.574Z,21.00
2022-12-15T03:26:41.697Z,23.20
2022-12-15T03:29:08.294Z,23.50
2022-12-15T03:31:35.065Z,25.55
2022-12-15T03:34:02.054Z,21.10
2022-12-15T03:36:28.608Z,23.77
2022-12-15T03:38:55.099Z,22.65
2022-12-15T03:41:21.606Z,19.50
2022-12-15T03:43:49.841Z,21.33
2022-12-15T03:46:16.818Z,20.48
2022-12-15T03:48:43.639Z,21.80
2022-12-15T03:51:10.462Z,24.60
2022-12-15T03:53:36.933Z,21.60
2022-12-15T03:56:03.489Z,16.83
2022-12-15T03:58:30.288Z,29.67
2022-12-15T04:00:57.000Z,23.90
2022-12-15T04:03:23.674Z,21.77
2022-12-15T04:05:51.257Z,24.95
2022-12-15T04:08:17.719Z,24.73
2022-12-15T04:10:44.263Z,24.05
2022-12-15T04:13:12.037Z,22.23
2022-12-15T04:15:40.439Z,24.98
2022-12-15T04:18:10.622Z,24.08
2022-12-15T04:20:39.058Z,28.00
2022-12-15T04:23:07.819Z,27.08
2022-12-15T04:25:54.298Z,28.40
2022-12-15T04:28:39.492Z,27.58
2022-12-15T04:31:30.760Z,23.45
2022-12-15T04:34:25.174Z,22.17
2022-12-15T04:37:12.392Z,21.77
2022-12-15T04:40:02.338Z,23.55
2022-12-15T04:42:49.225Z,27.52
2022-12-15T04:45:37.307Z,23.10
2022-12-15T04:48:23.301Z,21.13
2022-12-15T04:51:08.089Z,24.27
2022-12-15T04:53:53.101Z,22.38
2022-12-15T04:56:38.263Z,29.35
2022-12-15T04:59:23.525Z,25.13
2022-12-15T05:02:08.878Z,25.60
2022-12-15T05:04:54.346Z,26.35
2022-12-15T05:07:39.319Z,26.70
2022-12-15T05:10:25.005Z,25.50
2022-12-15T05:13:09.866Z,27.25
2022-12-15T05:15:55.197Z,23.25
2022-12-15T05:18:40.323Z,28.35
2022-12-15T05:21:25.475Z,26.95
2022-12-15T05:24:10.948Z,27.08
2022-12-15T05:26:56.647Z,29.42
2022-12-15T05:29:41.668Z,27.52
2022-12-15T05:32:08.423Z,24.45
2022-12-15T05:34:36.286Z,32.80
2022-12-15T05:37:04.854Z,24.45
2022-12-15T05:39:31.471Z,24.42
2022-12-15T05:41:57.942Z,26.85
2022-12-15T05:44:25.552Z,26.10
2022-12-15T05:46:52.647Z,32.05
2022-12-15T05:49:19.303Z,31.10
2022-12-15T05:51:47.634Z,25.70
2022-12-15T05:54:17.352Z,25.05
2022-12-15T05:56:44.980Z,28.15
2022-12-15T05:59:11.566Z,32.95
2022-12-15T06:01:38.277Z,32.13
2022-12-15T06:04:05.235Z,31.77
2022-12-15T06:06:32.434Z,31.70
2022-12-15T06:08:58.947Z,25.52
2022-12-15T06:11:25.444Z,25.52
2022-12-15T06:13:52.998Z,26.17
2022-12-15T06:16:21.101Z,27.27
2022-12-15T06:18:50.499Z,26.63
2022-12-15T06:21:19.986Z,32.17
2022-12-15T06:23:47.914Z,31.95
2022-12-15T06:26:20.542Z,26.77
2022-12-15T06:28:48.156Z,25.80
2022-12-15T06:31:16.216Z,31.80
2022-12-15T06:33:42.700Z,28.67
2022-12-15T06:36:15.232Z,30.42
2022-12-15T06:38:43.540Z,29.98
2022-12-15T06:41:12.765Z,30.52
2022-12-15T06:43:39.747Z,31.83
2022-12-15T06:46:06.822Z,28.35
2022-12-15T06:48:33.368Z,29.92
2022-12-15T06:51:05.220Z,28.65
2022-12-15T06:53:32.583Z,25.23
2022-12-15T06:56:01.712Z,29.02
2022-12-15T06:58:28.250Z,29.67
2022-12-15T07:00:56.233Z,30.85
2022-12-15T07:03:22.939Z,34.17
2022-12-15T07:06:01.369Z,40.17
2022-12-15T07:08:32.174Z,35.15
2022-12-15T07:11:03.452Z,32.70
2022-12-15T07:13:30.917Z,29.48
2022-12-15T07:16:06.158Z,30.95
2022-12-15T07:18:32.665Z,31.67
2022-12-15T07:21:07.423Z,32.13
2022-12-15T07:23:53.358Z,30.60
2022-12-15T07:26:20.979Z,34.65
2022-12-15T07:28:47.606Z,33.80
2022-12-15T07:31:15.441Z,39.47
2022-12-15T07:33:42.716Z,40.25
2022-12-15T07:36:10.990Z,32.50
2022-12-15T07:38:38.122Z,34.67
2022-12-15T07:41:06.945Z,40.63
2022-12-15T07:43:34.374Z,39.42
2022-12-15T07:46:03.390Z,36.67
2022-12-15T07:48:30.302Z,30.17
2022-12-15T07:51:08.310Z,37.53
2022-12-15T07:53:38.191Z,36.05
2022-12-15T07:56:08.924Z,36.15
2022-12-15T07:58:37.111Z,28.65
2022-12-15T08:01:07.048Z,32.92
2022-12-15T08:03:34.656Z,35.92
2022-12-15T08:06:05.459Z,41.83
2022-12-15T08:08:32.927Z,43.53
2022-12-15T08:11:03.747Z,37.35
2022-12-15T08:14:01.215Z,39.92
2022-12-15T08:16:17.057Z,39.15
2022-12-15T08:18:43.661Z,35.78
2022-12-15T08:21:11.669Z,45.20
2022-12-15T08:23:40.183Z,39.08
2022-12-15T08:26:09.735Z,42.97
2022-12-15T08:28:38.070Z,40.08
2022-12-15T08:31:09.847Z,40.65
2022-12-15T08:33:36.813Z,35.55
2022-12-15T08:36:06.632Z,43.00
2022-12-15T08:38:34.727Z,39.40
2022-12-15T08:41:13.564Z,45.38
2022-12-15T08:43:47.451Z,48.30
2022-12-15T08:46:24.817Z,48.58
2022-12-15T08:48:52.850Z,43.85
2022-12-15T08:51:21.211Z,39.75
2022-12-15T08:53:48.818Z,36.42
2022-12-15T08:56:19.037Z,46.28
2022-12-15T08:58:47.112Z,38.90
2022-12-15T09:01:23.403Z,42.80
2022-12-15T09:03:53.665Z,38.05
2022-12-15T09:06:34.982Z,37.58
2022-12-15T09:09:04.837Z,40.92
2022-12-15T09:11:31.438Z,44.25
2022-12-15T09:13:58.476Z,39.50
2022-12-15T09:16:25.636Z,43.70
2022-12-15T09:18:55.834Z,41.53
2022-12-15T09:21:25.959Z,43.38
2022-12-15T09:23:55.247Z,37.97
2022-12-15T09:26:23.121Z,39.55
2022-12-15T09:28:50.925Z,41.00
2022-12-15T09:31:21.682Z,45.60
2022-12-15T09:33:49.965Z,35.88
2022-12-15T09:36:16.854Z,38.40
2022-12-15T09:38:44.050Z,32.50
2022-12-15T09:41:13.275Z,38.55
2022-12-15T09:43:50.476Z,35.85
2022-12-15T09:46:27.675Z,34.47
2022-12-15T09:48:58.161Z,32.17
2022-12-15T09:51:39.302Z,33.50
2022-12-15T09:54:06.775Z,34.30
2022-12-15T09:56:44.322Z,29.25
2022-12-15T09:59:37.926Z,37.33
2022-12-15T10:02:25.599Z,31.90
2022-12-15T10:05:10.166Z,35.28
2022-12-15T10:07:46.577Z,34.90
2022-12-15T10:10:38.836Z,33.88
2022-12-15T10:13:24.930Z,34.17
2022-12-15T10:15:58.738Z,32.45
2022-12-15T10:18:34.953Z,41.55
2022-12-15T10:21:02.305Z,33.67
2022-12-15T10:23:30.526Z,33.60
2022-12-15T10:26:21.245Z,33.63
2022-12-15T10:29:16.733Z,35.42
2022-12-15T10:31:49.428Z,30.00
2022-12-15T10:36:52.375Z,31.02
2022-12-15T10:39:20.913Z,29.92
2022-12-15T10:42:15.148Z,28.10
2022-12-15T10:44:44.963Z,32.03
2022-12-15T10:47:29.570Z,30.13
2022-12-15T10:50:20.976Z,30.85
2022-12-15T10:52:50.992Z,47.28
2022-12-15T10:55:37.125Z,28.23
2022-12-15T10:58:15.849Z,30.02
2022-12-15T11:00:42.386Z,30.48
2022-12-15T11:03:22.640Z,30.90
2022-12-15T11:05:55.131Z,31.45
2022-12-15T11:08:22.850Z,30.60
2022-12-15T11:11:11.043Z,33.50
2022-12-15T11:13:38.557Z,33.85
2022-12-15T11:16:16.561Z,35.33
2022-12-15T11:19:11.790Z,35.92
2022-12-15T11:21:53.123Z,35.22
2022-12-15T11:24:28.581Z,33.17
2022-12-15T11:27:01.888Z,40.03
2022-12-15T11:29:34.442Z,35.53
2022-12-15T11:32:06.679Z,38.05
2022-12-15T11:34:38.257Z,32.63
2022-12-15T11:37:18.075Z,34.28
2022-12-15T11:40:18.817Z,36.13
2022-12-15T11:43:00.586Z,33.65
2022-12-15T11:45:41.913Z,37.13
2022-12-15T11:48:17.591Z,35.97
2022-12-15T11:51:02.601Z,36.70
2022-12-15T11:54:06.563Z,33.40
2022-12-15T11:56:43.716Z,32.33
2022-12-15T11:59:34.749Z,32.88
2022-12-15T12:02:11.512Z,32.38
2022-12-15T12:05:03.713Z,38.00
2022-12-15T12:07:45.241Z,35.83
2022-12-15T12:10:27.337Z,28.67
2022-12-15T12:13:28.471Z,33.92
2022-12-15T12:16:10.751Z,36.25
2022-12-15T12:18:50.438Z,35.58
2022-12-15T12:21:25.469Z,33.92
2022-12-15T12:24:10.249Z,38.95
2022-12-15T12:26:46.082Z,36.90
2022-12-15T12:29:25.392Z,38.38
2022-12-15T12:32:02.192Z,34.88
2022-12-15T12:34:52.583Z,36.38
2022-12-15T12:37:49.650Z,42.72
2022-12-15T12:40:24.826Z,36.03
2022-12-15T12:42:58.769Z,35.10
2022-12-15T12:45:47.162Z,34.67
2022-12-15T12:48:27.795Z,33.90
2022-12-15T12:51:16.626Z,33.47
2022-12-15T12:53:43.136Z,31.90
2022-12-15T12:56:31.468Z,30.85
2022-12-15T12:58:58.124Z,35.42
2022-12-15T13:01:30.933Z,32.15
2022-12-15T13:04:12.797Z,29.17
2022-12-15T13:06:39.204Z,28.10
2022-12-15T13:09:17.934Z,35.63
2022-12-15T13:11:55.731Z,30.80
2022-12-15T13:14:40.591Z,34.10
2022-12-15T13:17:26.635Z,31.33
2022-12-15T13:19:56.600Z,30.48
2022-12-15T13:22:36.325Z,34.10
2022-12-15T13:25:39.084Z,32.15
2022-12-15T13:28:34.760Z,34.03
2022-12-15T13:31:16.728Z,34.13
2022-12-15T13:33:49.554Z,36.70
2022-12-15T13:39:01.185Z,33.42
2022-12-15T13:41:27.671Z,35.35
2022-12-15T13:43:55.180Z,35.83
2022-12-15T13:46:29.434Z,33.15
2022-12-15T13:49:14.050Z,33.03
2022-12-15T13:51:45.802Z,34.30
2022-12-15T13:54:25.891Z,43.78
2022-12-15T13:57:05.200Z,38.17
2022-12-15T13:59:37.926Z,40.22
2022-12-15T14:02:23.331Z,31.55
2022-12-15T14:05:09.988Z,30.33
2022-12-15T14:07:36.539Z,32.50
2022-12-15T14:10:07.384Z,32.55
2022-12-15T14:12:33.967Z,33.97
2022-12-15T14:15:01.305Z,33.47
2022-12-15T14:17:32.665Z,36.05
2022-12-15T14:20:11.504Z,33.67
2022-12-15T14:22:43.016Z,39.00
2022-12-15T14:25:21.950Z,33.33
2022-12-15T14:27:50.854Z,36.60
2022-12-15T14:30:29.345Z,34.33
2022-12-15T14:33:12.513Z,35.88
2022-12-15T14:38:45.269Z,36.17
2022-12-15T14:41:23.171Z,38.58
2022-12-15T14:46:38.898Z,40.60
2022-12-15T14:49:08.765Z,40.83
2022-12-15T14:51:46.215Z,33.72
2022-12-15T14:54:38.433Z,35.42
2022-12-15T14:57:20.026Z,36.60
2022-12-15T14:59:48.512Z,43.42
2022-12-15T15:02:26.612Z,42.40
2022-12-15T15:03:14.381Z,38.42
2022-12-15T15:05:05.476Z,37.47
2022-12-15T15:07:32.992Z,36.03
2022-12-15T15:10:01.341Z,39.67
2022-12-15T15:12:46.044Z,37.97
2022-12-15T15:15:18.565Z,35.85
2022-12-15T15:17:58.409Z,35.10
2022-12-15T15:20:27.998Z,30.75
2022-12-15T15:23:16.648Z,37.72
2022-12-15T15:25:54.898Z,33.78
2022-12-15T15:28:27.597Z,40.50
2022-12-15T15:30:57.555Z,37.92
2022-12-15T15:33:25.253Z,39.85
2022-12-15T15:35:55.039Z,37.15
2022-12-15T15:38:37.900Z,34.90
2022-12-15T15:43:47.696Z,32.97
2022-12-15T15:46:16.630Z,50.75
2022-12-15T15:48:46.548Z,63.03
2022-12-15T15:51:14.163Z,56.17
2022-12-15T15:53:41.153Z,62.03
2022-12-15T15:56:12.263Z,49.38
2022-12-15T15:58:38.813Z,61.97
2022-12-15T16:01:11.183Z,57.58
2022-12-15T16:03:39.662Z,60.35
2022-12-15T16:06:13.996Z,63.30
2022-12-15T16:08:40.594Z,61.78
2022-12-15T16:11:11.130Z,54.28
2022-12-15T16:13:39.030Z,71.00
2022-12-15T16:16:06.479Z,59.85
2022-12-15T16:18:33.413Z,60.20
2022-12-15T16:21:00.245Z,72.30
2022-12-15T16:23:28.403Z,80.95
2022-12-15T16:26:00.212Z,67.15
2022-12-15T16:28:30.367Z,58.60
2022-12-15T16:30:58.769Z,63.95
2022-12-15T16:33:25.677Z,68.55
2022-12-15T16:35:53.315Z,62.22
2022-12-15T16:38:24.308Z,55.97
2022-12-15T16:40:51.651Z,49.08
2022-12-15T16:43:22.286Z,53.67
2022-12-15T16:45:51.169Z,53.45
2022-12-15T16:48:18.412Z,48.10
2022-12-15T16:50:51.949Z,48.33
2022-12-15T16:53:37.577Z,40.42
2022-12-15T16:56:06.462Z,42.13
2022-12-15T16:58:35.974Z,48.42
2022-12-15T17:01:03.887Z,51.22
2022-12-15T17:03:30.993Z,44.95
2022-12-15T17:06:00.988Z,57.28
2022-12-15T17:08:38.498Z,92.25
2022-12-15T17:11:05.252Z,80.63
2022-12-15T17:13:39.083Z,76.22
2022-12-15T17:16:06.518Z,59.72
2022-12-15T17:18:34.069Z,59.03
2022-12-15T17:21:06.812Z,81.05
2022-12-15T17:26:22.527Z,73.30
2022-12-15T17:28:48.962Z,64.18
2022-12-15T17:31:21.332Z,61.70
2022-12-15T17:33:48.865Z,61.05
2022-12-15T17:36:19.947Z,57.40
2022-12-15T17:38:48.555Z,70.60
2022-12-15T17:41:35.161Z,59.72
2022-12-15T17:44:31.503Z,57.55
2022-12-15T17:46:49.576Z,57.72
2022-12-15T17:49:16.309Z,59.63
2022-12-15T17:51:44.331Z,61.63
2022-12-15T17:54:16.343Z,57.65
2022-12-15T17:56:45.635Z,42.95
2022-12-15T17:59:17.889Z,54.30
2022-12-15T18:01:44.475Z,81.88
2022-12-15T18:04:11.668Z,69.30
2022-12-15T18:06:43.411Z,105.55
2022-12-15T18:09:16.067Z,84.37
2022-12-15T18:11:45.144Z,60.45
2022-12-15T18:14:21.041Z,63.42
2022-12-15T18:16:47.583Z,54.33
2022-12-15T18:19:14.962Z,57.08
2022-12-15T18:21:41.663Z,58.08
2022-12-15T18:24:17.421Z,52.58
2022-12-15T18:26:44.990Z,54.78
2022-12-15T18:29:14.106Z,44.88
2022-12-15T18:31:41.742Z,51.40
2022-12-15T18:34:19.257Z,55.55
2022-12-15T18:36:46.861Z,55.53
2022-12-15T18:39:24.004Z,51.85
2022-12-15T18:41:51.582Z,54.95
2022-12-15T18:44:26.921Z,52.15
2022-12-15T18:46:55.377Z,55.90
2022-12-15T18:49:23.166Z,59.35
2022-12-15T18:51:50.252Z,53.78
2022-12-15T18:54:20.066Z,56.25
2022-12-15T18:56:46.976Z,53.28
2022-12-15T18:59:17.446Z,56.17
2022-12-15T19:01:48.929Z,50.47
2022-12-15T19:04:16.008Z,57.53
2022-12-15T19:06:44.288Z,60.95
2022-12-15T19:09:19.289Z,58.97
2022-12-15T19:12:08.936Z,60.70
2022-12-15T19:14:45.039Z,61.80
2022-12-15T19:17:35.994Z,56.20
2022-12-15T19:20:23.185Z,64.45
2022-12-15T19:22:50.243Z,75.93
2022-12-15T19:25:25.928Z,57.88
2022-12-15T19:27:58.757Z,56.50
2022-12-15T19:30:31.031Z,53.50
2022-12-15T19:32:57.828Z,48.90
2022-12-15T19:35:27.201Z,48.42
2022-12-15T19:37:57.119Z,48.78
2022-12-15T19:40:30.336Z,51.00
2022-12-15T19:42:58.213Z,58.88
2022-12-15T19:45:30.744Z,55.17
2022-12-15T19:47:57.512Z,54.78
2022-12-15T19:50:27.886Z,47.65
2022-12-15T19:53:03.646Z,54.90
2022-12-15T19:55:33.112Z,58.90
2022-12-15T19:58:00.797Z,66.50
2022-12-15T20:00:27.469Z,55.22
2022-12-15T20:02:55.145Z,55.88
2022-12-15T20:05:24.682Z,57.97
2022-12-15T20:07:54.854Z,61.85
2022-12-15T20:10:31.977Z,59.72
2022-12-15T20:13:00.487Z,54.13
2022-12-15T20:15:27.545Z,57.40
2022-12-15T20:17:57.662Z,50.05
2022-12-15T20:20:27.799Z,48.40
2022-12-15T20:22:57.478Z,42.63
2022-12-15T20:25:27.852Z,45.13
2022-12-15T20:27:54.562Z,44.08
2022-12-15T20:30:26.809Z,38.40
2022-12-15T20:32:53.620Z,40.70
2022-12-15T20:35:22.008Z,42.22
2022-12-15T20:37:49.839Z,36.22
2022-12-15T20:40:24.869Z,38.45
2022-12-15T20:42:52.758Z,40.30
2022-12-15T20:45:22.178Z,53.03
2022-12-15T20:47:50.904Z,77.20
2022-12-15T20:50:27.317Z,74.90
2022-12-15T20:52:55.066Z,67.70
2022-12-15T20:55:21.878Z,72.55
2022-12-15T20:57:48.724Z,54.20
2022-12-15T21:00:17.846Z,59.17
2022-12-15T21:02:45.753Z,57.63
2022-12-15T21:05:24.098Z,50.20
2022-12-15T21:07:51.542Z,57.00
2022-12-15T21:10:19.819Z,52.90
2022-12-15T21:12:50.401Z,43.92
2022-12-15T21:15:22.575Z,45.92
2022-12-15T21:18:08.840Z,44.42
2022-12-15T21:20:41.316Z,45.70
2022-12-15T21:23:27.314Z,64.63
2022-12-15T21:25:55.631Z,61.47
2022-12-15T21:28:22.801Z,48.65
2022-12-15T21:30:49.675Z,46.95
2022-12-15T21:33:17.206Z,53.47
2022-12-15T21:35:46.547Z,51.55
2022-12-15T21:38:33.558Z,47.38
2022-12-15T21:41:02.899Z,46.72
2022-12-15T21:43:33.288Z,45.35
2022-12-15T21:46:01.796Z,47.25
2022-12-15T21:48:47.087Z,64.97
2022-12-15T21:51:16.863Z,52.40
2022-12-15T21:53:45.326Z,47.90
2022-12-15T21:56:20.096Z,43.17
2022-12-15T21:58:52.597Z,39.80
2022-12-15T22:01:24.482Z,42.90
2022-12-15T22:03:54.616Z,37.17
2022-12-15T22:06:26.365Z,39.67
2022-12-15T22:08:54.680Z,40.85
2022-12-15T22:11:27.206Z,41.45
2022-12-15T22:13:56.794Z,37.65
2022-12-15T22:16:23.840Z,39.05
2022-12-15T22:18:54.941Z,41.50
2022-12-15T22:21:23.373Z,42.55
2022-12-15T22:23:50.805Z,40.83
2022-12-15T22:26:39.642Z,41.25
2022-12-15T22:29:25.197Z,47.53
2022-12-15T22:31:52.025Z,55.50
2022-12-15T22:34:23.641Z,52.72
2022-12-15T22:36:50.627Z,51.77
2022-12-15T22:39:19.079Z,54.95
2022-12-15T22:41:50.133Z,55.22
2022-12-15T22:44:22.132Z,50.33
2022-12-15T22:46:50.109Z,48.05
2022-12-15T22:49:29.045Z,49.17
2022-12-15T22:51:55.581Z,45.97
2022-12-15T22:54:27.527Z,43.33
2022-12-15T22:56:59.182Z,34.70
2022-12-15T22:59:31.811Z,54.97
2022-12-15T23:01:59.954Z,51.05
2022-12-15T23:04:27.658Z,53.28
2022-12-15T23:06:54.203Z,57.05
2022-12-15T23:09:21.584Z,56.15
2022-12-15T23:11:48.292Z,64.60
2022-12-15T23:14:16.967Z,57.78
2022-12-15T23:16:45.493Z,56.58
2022-12-15T23:19:23.850Z,51.58
2022-12-15T23:21:51.741Z,53.72
2022-12-15T23:24:18.609Z,50.40
2022-12-15T23:26:45.181Z,49.97
2022-12-15T23:29:11.693Z,54.97
2022-12-15T23:31:38.318Z,48.15
2022-12-15T23:34:05.053Z,48.45
2022-12-15T23:36:31.522Z,50.00
2022-12-15T23:38:58.189Z,47.88
2022-12-15T23:41:24.994Z,47.17
2022-12-15T23:43:51.543Z,54.35
2022-12-15T23:46:18.682Z,49.95
2022-12-15T23:48:45.504Z,51.47
2022-12-15T23:51:17.759Z,59.45
2022-12-15T23:53:45.870Z,47.47
2022-12-15T23:56:18.616Z,50.15
2022-12-15T23:58:46.333Z,51.20
